Time;durP1;ratioP1;P1;durP2;ratioP2;P2;SDS_P1;SDS_P2;PMS_P1;PMS_P2;Temp;Humidity;BMP_temperature;BMP_pressure;BME280_temperature;BME280_humidity;BME280_pressure;Samples;Min_cycle;Max_cycle;Signal;HPM_P1;HPM_P2
2023/12/01 00:02:56;;;;;;;29.05;4.53;;;;;;;17.91;100.00;101712.59;10592750;27;20058;-78
2023/12/01 00:08:19;;;;;;;29.85;4.65;;;;;;;17.61;100.00;101721.44;10592251;27;20580;-77
2023/12/01 00:13:43;;;;;;;23.63;3.85;;;;;;;17.37;100.00;101724.91;10605204;27;20404;-77
2023/12/01 00:19:05;;;;;;;37.50;4.68;;;;;;;17.39;100.00;101735.59;10568122;27;20044;-77
2023/12/01 00:24:28;;;;;;;24.73;3.80;;;;;;;17.84;100.00;101734.84;10593384;27;20047;-78
2023/12/01 00:29:52;;;;;;;27.73;4.63;;;;;;;17.98;100.00;101732.19;10591251;27;20051;-76
2023/12/01 00:35:14;;;;;;;24.90;4.32;;;;;;;18.00;100.00;101733.06;10576521;27;20047;-77
2023/12/01 00:40:37;;;;;;;26.80;4.30;;;;;;;18.15;100.00;101733.06;10595638;27;20092;-77
2023/12/01 00:46:01;;;;;;;31.98;3.55;;;;;;;18.13;100.00;101732.16;10587203;27;20046;-77
2023/12/01 00:51:23;;;;;;;27.45;4.75;;;;;;;17.99;100.00;101732.16;10589618;27;20047;-77
2023/12/01 00:56:46;;;;;;;30.63;3.50;;;;;;;17.90;100.00;101726.81;10587607;27;20075;-77
2023/12/01 01:02:10;;;;;;;29.00;3.80;;;;;;;17.76;100.00;101725.91;10589671;27;20488;-77
2023/12/01 01:07:33;;;;;;;24.42;4.57;;;;;;;17.64;100.00;101725.91;10589890;27;20055;-77
2023/12/01 01:12:55;;;;;;;21.42;3.58;;;;;;;17.79;100.00;101723.22;10589875;27;20404;-77
2023/12/01 01:18:20;;;;;;;25.02;4.30;;;;;;;17.88;100.00;101726.81;10576113;27;20073;-77
2023/12/01 01:23:42;;;;;;;22.27;4.00;;;;;;;17.76;100.00;101728.59;10560537;28;20704;-77
2023/12/01 01:29:05;;;;;;;19.95;4.05;;;;;;;17.62;100.00;101728.56;10581226;27;20042;-76
2023/12/01 01:34:29;;;;;;;20.38;3.95;;;;;;;17.47;100.00;101732.03;10603237;27;20051;-78
2023/12/01 01:39:51;;;;;;;27.17;3.67;;;;;;;17.22;100.00;101740.84;10588082;27;20039;-77
2023/12/01 01:45:14;;;;;;;23.45;4.30;;;;;;;17.07;100.00;101741.66;10560947;28;20058;-76
2023/12/01 01:50:38;;;;;;;16.67;3.25;;;;;;;16.92;100.00;101744.28;10601611;27;20067;-78
2023/12/01 01:56:00;;;;;;;18.40;3.28;;;;;;;16.88;100.00;101750.47;10588064;27;20087;-78
2023/12/01 02:01:25;;;;;;;21.70;3.22;;;;;;;16.82;100.00;101752.19;10602025;27;20046;-77
2023/12/01 02:06:49;;;;;;;15.40;2.97;;;;;;;16.84;100.00;101753.13;10587654;27;20055;-77
2023/12/01 02:12:11;;;;;;;17.63;3.20;;;;;;;16.92;100.00;101762.94;10601621;27;20493;-77
2023/12/01 02:17:33;;;;;;;22.98;3.20;;;;;;;16.88;100.00;101755.78;10568188;27;20050;-78
2023/12/01 02:23:03;;;;;;;16.00;3.67;;;;;;;16.91;100.00;101749.59;10600652;27;20087;-77
2023/12/01 02:28:26;;;;;;;18.80;3.10;;;;;;;16.90;100.00;101745.16;10575694;28;20527;-77
2023/12/01 02:33:49;;;;;;;19.05;3.17;;;;;;;16.81;100.00;101743.31;10587491;27;20047;-76
2023/12/01 02:39:13;;;;;;;19.77;2.95;;;;;;;16.76;100.00;101738.84;10609913;27;20039;-77
2023/12/01 02:44:35;;;;;;;14.10;2.65;;;;;;;16.61;100.00;101751.19;10602159;27;20047;-77
2023/12/01 02:49:58;;;;;;;13.18;2.63;;;;;;;16.62;100.00;101755.63;10579531;27;20075;-76
2023/12/01 02:55:22;;;;;;;18.08;3.20;;;;;;;16.73;100.00;101755.72;10608777;27;20055;-76
2023/12/01 03:00:44;;;;;;;20.25;3.28;;;;;;;16.79;100.00;101760.19;10594442;27;20422;-77
2023/12/01 03:06:07;;;;;;;12.32;2.60;;;;;;;16.80;100.00;101762.00;10591754;27;20047;-77
2023/12/01 03:11:32;;;;;;;16.02;2.63;;;;;;;16.70;100.00;101769.91;10564782;27;20634;-77
2023/12/01 03:16:56;;;;;;;15.35;3.63;;;;;;;16.58;100.00;101767.13;10594491;27;20047;-77
2023/12/01 03:22:19;;;;;;;15.75;2.50;;;;;;;16.46;100.00;101764.38;10594768;27;20046;-77
2023/12/01 03:27:44;;;;;;;20.48;3.60;;;;;;;16.60;100.00;101773.41;10590335;27;20151;-77
2023/12/01 03:33:08;;;;;;;12.85;2.97;;;;;;;16.68;100.00;101768.13;10607572;27;20043;-77
2023/12/01 03:38:30;;;;;;;15.80;2.30;;;;;;;16.70;100.00;101772.59;10573632;27;20047;-77
2023/12/01 03:43:54;;;;;;;11.40;3.17;;;;;;;16.58;100.00;101761.81;10594628;27;20051;-77
2023/12/01 03:49:16;;;;;;;12.80;2.40;;;;;;;16.45;100.00;101772.38;10570147;27;20104;-77
2023/12/01 03:54:39;;;;;;;15.88;2.55;;;;;;;16.23;100.00;101772.19;10606017;27;20043;-76
2023/12/01 04:00:07;;;;;;;12.57;2.70;;;;;;;16.08;100.00;101782.69;10603170;27;20511;-77
2023/12/01 04:05:34;;;;;;;15.73;3.20;;;;;;;15.90;100.00;101779.84;10580498;27;20043;-76
2023/12/01 04:10:57;;;;;;;11.57;2.65;;;;;;;15.82;100.00;101795.75;10592662;27;20096;-77
2023/12/01 04:16:24;;;;;;;9.65;2.45;;;;;;;15.68;100.00;101791.16;10592157;27;20051;-77
2023/12/01 04:21:47;;;;;;;13.93;2.55;;;;;;;15.59;100.00;101789.28;10605588;27;20036;-77
2023/12/01 04:27:10;;;;;;;9.35;2.40;;;;;;;15.73;100.00;101792.09;10599275;27;20043;-78
2023/12/01 04:32:33;;;;;;;7.93;2.47;;;;;;;15.59;100.00;101807.03;10591781;27;20067;-78
2023/12/01 04:37:57;;;;;;;13.73;2.20;;;;;;;15.51;100.00;101806.91;10586400;27;20412;-77
2023/12/01 04:43:19;;;;;;;14.70;3.10;;;;;;;15.42;100.00;101805.03;10584369;27;20035;-77
2023/12/01 04:48:43;;;;;;;9.93;2.67;;;;;;;15.38;100.00;101804.94;10574785;27;20043;-78
2023/12/01 04:54:06;;;;;;;10.73;2.40;;;;;;;15.46;100.00;101811.28;10576450;27;20056;-78
2023/12/01 04:59:28;;;;;;;19.20;5.70;;;;;;;15.33;100.00;101812.00;10600478;27;20047;-77
2023/12/01 05:04:52;;;;;;;21.83;9.77;;;;;;;15.37;100.00;101824.44;10600111;27;20054;-77
2023/12/01 05:10:18;;;;;;;32.92;22.80;;;;;;;15.44;100.00;101834.31;10590235;27;20138;-78
2023/12/01 05:15:41;;;;;;;28.17;11.88;;;;;;;15.40;100.00;101829.81;10569274;27;20055;-77
2023/12/01 05:21:08;;;;;;;21.08;11.20;;;;;;;15.42;100.00;101830.75;10603600;27;20559;-77
2023/12/01 05:26:31;;;;;;;20.52;9.68;;;;;;;15.45;100.00;101842.31;10589786;27;20039;-78
2023/12/01 05:31:53;;;;;;;20.38;8.13;;;;;;;15.49;100.00;101845.94;10590659;27;20546;-79
2023/12/01 05:37:17;;;;;;;31.70;18.38;;;;;;;15.60;100.00;101846.97;10549737;27;20134;-77
2023/12/01 05:42:41;;;;;;;37.13;21.20;;;;;;;15.62;100.00;101839.88;10579135;27;20051;-77
2023/12/01 05:48:06;;;;;;;19.48;12.88;;;;;;;15.71;100.00;101847.09;10585636;27;20043;-77
2023/12/01 05:53:34;;;;;;;22.45;10.95;;;;;;;15.85;100.00;101842.84;10599739;27;20478;-77
2023/12/01 05:58:59;;;;;;;27.65;15.88;;;;;;;16.09;100.00;101850.19;10599435;27;20045;-77
2023/12/01 06:04:26;;;;;;;28.70;16.83;;;;;;;18.61;100.00;101839.16;10584949;27;20081;-77
2023/12/01 06:09:50;;;;;;;31.20;16.00;;;;;;;21.34;100.00;101836.78;10595319;27;20047;-78
2023/12/01 06:15:15;;;;;;;35.70;20.92;;;;;;;23.00;100.00;101832.53;10600197;27;20147;-77
2023/12/01 06:20:37;;;;;;;19.95;9.73;;;;;;;24.03;100.00;101834.91;10548790;27;20046;-77
2023/12/01 06:26:01;;;;;;;35.25;21.85;;;;;;;25.13;98.29;101827.69;10588392;27;20511;-77
2023/12/01 06:31:23;;;;;;;38.88;27.70;;;;;;;25.83;91.73;101833.78;10585928;27;20456;-77
2023/12/01 06:36:46;;;;;;;33.28;21.98;;;;;;;26.86;79.28;101843.97;10586898;28;20500;-76
2023/12/01 06:42:10;;;;;;;31.25;18.20;;;;;;;27.53;72.41;101846.13;10584806;28;20035;-77
2023/12/01 06:47:32;;;;;;;26.60;14.25;;;;;;;27.99;66.25;101846.13;10556267;28;20048;-77
2023/12/01 06:52:59;;;;;;;30.75;19.65;;;;;;;28.21;63.14;101848.94;10576998;28;20177;-77
2023/12/01 06:58:23;;;;;;;30.85;10.43;;;;;;;28.74;57.63;101852.19;10564340;28;20493;-77
2023/12/01 07:03:46;;;;;;;55.58;34.67;;;;;;;29.56;53.22;101842.19;10567646;28;20101;-79
2023/12/01 07:09:09;;;;;;;28.05;19.38;;;;;;;29.79;51.70;101844.75;10569756;28;20052;-79
2023/12/01 07:14:36;;;;;;;20.42;12.82;;;;;;;30.08;49.43;101851.53;10571408;28;20065;-75
2023/12/01 07:19:59;;;;;;;17.38;3.88;;;;;;;30.27;47.64;101851.50;10549459;28;20063;-75
2023/12/01 07:25:22;;;;;;;13.88;2.40;;;;;;;29.90;47.79;101847.81;10568715;28;20098;-75
2023/12/01 07:30:47;;;;;;;13.25;2.22;;;;;;;30.70;45.36;101850.31;10570879;28;20138;-74
2023/12/01 07:36:11;;;;;;;19.65;2.83;;;;;;;31.14;42.68;101845.28;10564840;28;20046;-75
2023/12/01 07:41:33;;;;;;;14.25;2.70;;;;;;;31.37;42.29;101855.88;10543416;28;20059;-73
2023/12/01 07:46:57;;;;;;;13.35;2.65;;;;;;;31.27;40.57;101847.28;10580233;27;20062;-74
2023/12/01 07:52:20;;;;;;;8.77;1.95;;;;;;;30.48;41.73;101850.47;10587268;27;20047;-74
2023/12/01 07:57:42;;;;;;;11.27;2.00;;;;;;;29.61;42.43;101845.56;10582496;27;20072;-74
2023/12/01 08:03:07;;;;;;;14.10;1.90;;;;;;;30.77;41.25;101844.47;10569324;27;20058;-74
2023/12/01 08:08:29;;;;;;;9.25;2.17;;;;;;;30.84;40.01;101839.56;10574707;27;20162;-75
2023/12/01 08:13:53;;;;;;;11.48;2.00;;;;;;;30.63;40.61;101833.38;10578479;27;20051;-74
2023/12/01 08:19:17;;;;;;;12.38;2.42;;;;;;;30.43;40.40;101833.47;10573100;27;20092;-74
2023/12/01 08:24:41;;;;;;;16.70;2.72;;;;;;;29.96;41.03;101828.50;10590778;27;20062;-74
2023/12/01 08:30:04;;;;;;;8.20;1.80;;;;;;;30.21;40.88;101830.03;10604657;27;20051;-75
2023/12/01 08:35:29;;;;;;;9.05;2.17;;;;;;;30.37;40.25;101825.59;10561518;28;20048;-75
2023/12/01 08:40:52;;;;;;;10.75;2.15;;;;;;;30.84;39.31;101832.28;10587395;27;20043;-76
2023/12/01 08:46:14;;;;;;;7.80;2.22;;;;;;;30.36;39.87;101816.53;10589616;27;20051;-75
2023/12/01 08:51:39;;;;;;;7.70;1.92;;;;;;;31.07;38.78;101822.00;10589510;27;20051;-75
2023/12/01 08:57:01;;;;;;;13.25;1.70;;;;;;;30.26;39.30;101814.34;10586824;27;20062;-76
2023/12/01 09:02:24;;;;;;;12.88;2.72;;;;;;;30.35;38.91;101809.31;10596904;27;20066;-75
2023/12/01 09:07:48;;;;;;;9.18;1.83;;;;;;;30.54;39.13;101812.00;10584852;27;20093;-77
2023/12/01 09:13:10;;;;;;;12.27;2.05;;;;;;;30.72;38.36;101821.13;10575205;27;20039;-76
2023/12/01 09:18:33;;;;;;;8.43;1.70;;;;;;;31.11;37.72;101810.88;10600947;27;20043;-76
2023/12/01 09:23:57;;;;;;;6.72;1.90;;;;;;;31.60;36.97;101806.38;10581109;27;20075;-77
2023/12/01 09:29:19;;;;;;;7.63;1.73;;;;;;;30.39;38.23;101796.41;10585976;27;20043;-77
2023/12/01 09:34:42;;;;;;;10.25;2.42;;;;;;;29.93;39.52;101781.47;10579852;27;20057;-76
2023/12/01 09:40:09;;;;;;;7.55;1.85;;;;;;;30.36;39.59;101788.38;10586084;27;20051;-75
2023/12/01 09:45:31;;;;;;;13.05;3.53;;;;;;;31.22;39.24;101778.41;10601324;27;20096;-76
2023/12/01 09:50:54;;;;;;;7.63;1.80;;;;;;;31.33;38.56;101769.63;10583554;27;20047;-77
2023/12/01 09:56:19;;;;;;;5.90;2.15;;;;;;;29.14;41.87;101761.56;10579049;27;20054;-76
2023/12/01 10:01:41;;;;;;;10.68;2.40;;;;;;;28.44;44.59;101764.63;10597862;27;20058;-77
2023/12/01 10:07:04;;;;;;;4.10;1.25;;;;;;;28.73;45.05;101747.06;10583132;27;20069;-76
2023/12/01 10:12:28;;;;;;;11.35;3.13;;;;;;;28.30;47.95;101753.44;10600984;27;20563;-76
2023/12/01 10:17:50;;;;;;;8.27;2.70;;;;;;;29.70;44.27;101747.13;10586724;27;20158;-77
2023/12/01 10:23:18;;;;;;;11.10;3.60;;;;;;;30.61;41.27;101739.84;10589417;27;20553;-77
2023/12/01 10:28:43;;;;;;;12.75;3.70;;;;;;;30.15;43.94;101724.94;10591517;27;20054;-76
2023/12/01 10:34:06;;;;;;;7.32;1.67;;;;;;;29.92;42.73;101739.72;10568413;27;20047;-75
2023/12/01 10:39:29;;;;;;;7.32;1.70;;;;;;;30.63;42.07;101734.31;10576548;28;20043;-75
2023/12/01 10:44:56;;;;;;;11.30;2.00;;;;;;;31.09;40.99;101727.31;10561105;28;20044;-75
2023/12/01 10:50:19;;;;;;;12.77;2.15;;;;;;;29.77;43.71;101728.66;10583922;28;20180;-75
2023/12/01 10:55:43;;;;;;;10.35;2.50;;;;;;;28.11;47.09;101725.25;10591774;27;20124;-76
2023/12/01 11:01:07;;;;;;;11.38;2.35;;;;;;;26.88;53.43;101711.97;10577443;27;20058;-75
2023/12/01 11:06:40;;;;;;;7.97;2.20;;;;;;;26.69;56.83;101713.59;10606492;27;20063;-76
2023/12/01 11:12:12;;;;;;;10.65;2.20;;;;;;;26.16;62.24;101712.72;10563899;27;20043;-76
2023/12/01 11:17:36;;;;;;;10.05;2.63;;;;;;;27.48;54.95;101724.19;10559202;27;20052;-76
2023/12/01 11:23:22;;;;;;;8.18;2.65;;;;;;;26.71;58.58;101719.84;10568031;27;20044;-76
2023/12/01 11:28:46;;;;;;;5.75;1.55;;;;;;;26.57;63.79;101728.47;10586725;27;20065;-76
2023/12/01 11:34:14;;;;;;;9.35;1.60;;;;;;;25.77;70.17;101731.16;10593506;27;20051;-76
2023/12/01 11:39:36;;;;;;;;;;;;;;;25.10;78.02;101722.34;10570608;27;20061;-76
2023/12/01 11:45:01;;;;;;;11.70;1.80;;;;;;;24.73;84.80;101717.09;10565032;28;19920;-76
2023/12/01 11:50:25;;;;;;;12.75;1.92;;;;;;;24.39;88.47;101714.41;10579396;28;20427;-76
2023/12/01 11:55:50;;;;;;;9.82;1.83;;;;;;;24.23;92.03;101713.00;10565802;27;20047;-76
2023/12/01 12:01:13;;;;;;;13.25;2.50;;;;;;;23.92;94.93;101711.97;10590976;27;20046;-75
2023/12/01 12:06:37;;;;;;;7.75;1.77;;;;;;;23.89;96.62;101717.47;10570380;27;20058;-76
2023/12/01 12:12:01;;;;;;;9.63;2.40;;;;;;;23.61;99.26;101717.22;10592159;27;20107;-76
2023/12/01 12:17:23;;;;;;;10.55;2.22;;;;;;;23.33;99.86;101707.03;10576194;28;20120;-74
2023/12/01 12:22:47;;;;;;;9.75;2.10;;;;;;;23.33;100.00;101711.50;10549755;28;20120;-76
2023/12/01 12:28:11;;;;;;;13.00;2.30;;;;;;;23.29;99.95;101710.72;10563748;28;20039;-76
2023/12/01 12:33:33;;;;;;;5.00;2.00;;;;;;;23.20;97.34;101702.81;10560443;27;20071;-75
2023/12/01 12:38:59;;;;;;;10.85;3.15;;;;;;;22.95;97.08;101706.94;10580770;27;20055;-76
2023/12/01 12:44:23;;;;;;;10.60;2.25;;;;;;;22.82;95.38;101705.41;10585626;27;20100;-75
2023/12/01 12:49:48;;;;;;;12.70;2.10;;;;;;;22.54;98.44;101705.00;10592844;27;20456;-76
2023/12/01 12:55:12;;;;;;;9.32;2.30;;;;;;;22.56;100.00;101706.78;10564444;27;20096;-75
2023/12/01 13:00:34;;;;;;;15.05;2.30;;;;;;;22.60;100.00;101718.34;10588689;27;20492;-76
2023/12/01 13:05:57;;;;;;;11.65;2.50;;;;;;;22.73;100.00;101708.28;10602862;27;20081;-75
2023/12/01 13:11:21;;;;;;;5.35;2.30;;;;;;;22.75;100.00;101710.03;10586871;27;20717;-75
2023/12/01 13:16:44;;;;;;;16.20;2.47;;;;;;;22.71;100.00;101710.94;10571680;27;20508;-74
2023/12/01 13:22:06;;;;;;;43.35;16.15;;;;;;;22.58;100.00;101709.41;10570807;27;20097;-75
2023/12/01 13:27:30;;;;;;;10.90;3.35;;;;;;;22.48;100.00;101695.25;10576162;27;20052;-74
2023/12/01 13:32:53;;;;;;;5.25;1.83;;;;;;;22.53;100.00;101704.13;10589050;27;20523;-74
2023/12/01 13:38:16;;;;;;;4.03;1.52;;;;;;;22.53;100.00;101692.47;10585305;27;20098;-74
2023/12/01 13:43:40;;;;;;;4.72;1.48;;;;;;;22.33;100.00;101695.53;10586217;27;20079;-75
2023/12/01 13:49:02;;;;;;;7.95;2.78;;;;;;;22.34;100.00;101700.00;10601515;27;20556;-74
2023/12/01 13:54:24;;;;;;;6.03;2.25;;;;;;;22.16;100.00;101711.97;10569343;27;20099;-74
2023/12/01 13:59:48;;;;;;;7.90;1.73;;;;;;;21.92;100.00;101711.47;10596452;27;20692;-74
2023/12/01 14:05:11;;;;;;;7.10;2.70;;;;;;;21.73;100.00;101705.44;10597017;27;20035;-74
2023/12/01 14:10:34;;;;;;;9.98;2.90;;;;;;;21.61;100.00;101692.22;10584701;27;20062;-75
2023/12/01 14:15:58;;;;;;;9.05;3.50;;;;;;;21.47;100.00;101703.16;10586307;27;20530;-74
2023/12/01 14:21:21;;;;;;;4.95;2.17;;;;;;;21.26;100.00;101696.31;10584921;27;20047;-75
2023/12/01 14:26:45;;;;;;;10.27;4.28;;;;;;;21.07;100.00;101702.75;10574548;27;20506;-74
2023/12/01 14:32:10;;;;;;;6.05;2.35;;;;;;;20.85;100.00;101701.25;10593868;27;20051;-74
2023/12/01 14:37:33;;;;;;;7.63;2.20;;;;;;;20.62;100.00;101702.38;10584136;28;20054;-74
2023/12/01 14:42:55;;;;;;;6.13;2.30;;;;;;;20.46;100.00;101698.09;10566275;28;20059;-73
2023/12/01 14:48:19;;;;;;;6.03;1.95;;;;;;;20.30;100.00;101699.09;10580435;28;20062;-74
2023/12/01 14:53:41;;;;;;;5.35;1.90;;;;;;;20.20;100.00;101708.16;10577300;28;20361;-73
2023/12/01 14:59:04;;;;;;;7.85;2.20;;;;;;;20.11;100.00;101710.91;10599636;28;20039;-74
2023/12/01 15:04:28;;;;;;;6.38;1.98;;;;;;;19.98;100.00;101717.25;10585241;28;20051;-74
2023/12/01 15:09:51;;;;;;;6.38;2.20;;;;;;;19.83;100.00;101721.84;10585582;28;20081;-74
2023/12/01 15:15:13;;;;;;;8.23;2.88;;;;;;;19.71;100.00;101718.34;10587965;28;20078;-74
2023/12/01 15:20:37;;;;;;;5.30;2.80;;;;;;;19.68;100.00;101737.16;10575703;27;20566;-74
2023/12/01 15:26:01;;;;;;;6.03;1.98;;;;;;;19.59;100.00;101737.19;10581094;28;20542;-74
2023/12/01 15:31:23;;;;;;;4.28;1.70;;;;;;;19.51;100.00;101747.94;10583431;28;20401;-73
2023/12/01 15:36:50;;;;;;;5.25;1.92;;;;;;;19.50;100.00;101759.53;10599791;28;20049;-73
2023/12/01 15:42:12;;;;;;;5.30;1.77;;;;;;;19.46;100.00;101752.44;10586727;27;20043;-74
2023/12/01 15:47:35;;;;;;;4.13;2.20;;;;;;;19.40;100.00;101755.13;10572623;28;20151;-74
2023/12/01 15:53:00;;;;;;;13.15;2.60;;;;;;;19.38;100.00;101743.50;10579452;28;20644;-74
2023/12/01 15:58:23;;;;;;;7.13;3.17;;;;;;;19.19;100.00;101740.03;10564462;28;20134;-73
2023/12/01 16:03:45;;;;;;;7.35;3.80;;;;;;;19.13;100.00;101733.81;10556104;28;20071;-73
2023/12/01 16:09:09;;;;;;;9.75;3.00;;;;;;;18.99;100.00;101726.72;10577250;28;20083;-74
2023/12/01 16:14:32;;;;;;;7.40;2.65;;;;;;;18.92;100.00;101730.31;10555396;28;20413;-73
2023/12/01 16:19:54;;;;;;;7.47;2.80;;;;;;;18.88;100.00;101731.22;10536305;28;20044;-73
2023/12/01 16:25:19;;;;;;;5.75;2.53;;;;;;;18.86;100.00;101743.72;10553946;28;20098;-73
2023/12/01 16:30:41;;;;;;;9.55;2.63;;;;;;;18.84;100.00;101745.47;10551096;28;20067;-74
2023/12/01 16:36:06;;;;;;;9.70;3.00;;;;;;;18.73;100.00;101751.75;10558297;27;20043;-74
2023/12/01 16:41:30;;;;;;;7.10;2.88;;;;;;;18.66;100.00;101758.91;10562969;28;20051;-74
2023/12/01 16:46:52;;;;;;;6.88;2.38;;;;;;;18.58;100.00;101771.41;10600128;27;20047;-74
2023/12/01 16:52:15;;;;;;;7.82;2.55;;;;;;;18.39;100.00;101761.56;10591446;27;20675;-74
2023/12/01 16:57:39;;;;;;;5.80;2.80;;;;;;;18.37;100.00;101755.34;10603529;27;20079;-74
2023/12/01 17:03:02;;;;;;;8.20;2.28;;;;;;;18.25;100.00;101753.53;10603688;27;20051;-74
2023/12/01 17:08:25;;;;;;;4.63;2.30;;;;;;;18.36;100.00;101746.44;10568597;27;20056;-74
2023/12/01 17:13:50;;;;;;;7.85;3.30;;;;;;;18.40;100.00;101750.00;10547434;28;20147;-74
2023/12/01 17:19:14;;;;;;;7.97;3.90;;;;;;;18.33;100.00;101755.34;10589909;27;20095;-74
2023/12/01 17:24:41;;;;;;;8.95;2.58;;;;;;;18.37;100.00;101766.06;10589713;27;20415;-74
2023/12/01 17:30:05;;;;;;;8.55;2.78;;;;;;;18.32;100.00;101766.03;10580998;27;20045;-73
2023/12/01 17:35:28;;;;;;;4.22;2.75;;;;;;;18.39;100.00;101777.63;10585589;27;20054;-76
2023/12/01 17:40:50;;;;;;;8.15;3.20;;;;;;;18.37;100.00;101766.06;10575668;27;20059;-76
2023/12/01 17:46:14;;;;;;;6.28;3.22;;;;;;;18.18;100.00;101758.00;10597398;27;20043;-76
2023/12/01 17:51:37;;;;;;;8.32;5.00;;;;;;;18.21;100.00;101767.81;10561785;27;20054;-75
2023/12/01 17:56:59;;;;;;;11.35;4.72;;;;;;;18.28;100.00;101774.94;10599764;27;20487;-76
2023/12/01 18:02:23;;;;;;;6.72;3.13;;;;;;;18.32;100.00;101792.75;10585393;27;20141;-75
2023/12/01 18:07:46;;;;;;;6.03;3.35;;;;;;;18.28;100.00;101809.72;10576975;27;20093;-75
2023/12/01 18:13:08;;;;;;;5.43;4.43;;;;;;;18.39;100.00;101823.06;10592708;27;20622;-75
2023/12/01 18:18:32;;;;;;;4.72;2.50;;;;;;;18.21;100.00;101819.50;10584929;27;20066;-75
2023/12/01 18:23:55;;;;;;;5.93;2.80;;;;;;;18.16;100.00;101829.31;10599421;27;20138;-75
2023/12/01 18:29:17;;;;;;;8.90;2.75;;;;;;;18.20;100.00;101831.06;10557594;28;20048;-76
2023/12/01 18:34:41;;;;;;;10.68;2.50;;;;;;;18.17;100.00;101815.06;10570061;27;20043;-76
2023/12/01 18:40:05;;;;;;;7.32;3.13;;;;;;;18.04;100.00;101812.34;10590682;28;20130;-75
2023/12/01 18:45:27;;;;;;;10.30;2.75;;;;;;;17.84;100.00;101796.28;10573415;28;20083;-75
2023/12/01 18:50:52;;;;;;;11.68;6.72;;;;;;;18.02;100.00;101807.00;10587775;28;20047;-76
2023/12/01 18:56:15;;;;;;;18.50;11.13;;;;;;;18.22;100.00;101807.91;10581330;28;20079;-75
2023/12/01 19:01:37;;;;;;;8.27;3.22;;;;;;;18.09;100.00;101799.88;10593432;28;20054;-76
2023/12/01 19:07:01;;;;;;;7.22;2.60;;;;;;;18.04;100.00;101797.22;10596004;28;20047;-75
2023/12/01 19:12:23;;;;;;;6.93;2.58;;;;;;;17.98;100.00;101780.28;10559887;28;20067;-75
2023/12/01 19:17:46;;;;;;;10.57;3.58;;;;;;;17.98;100.00;101785.63;10572279;27;20044;-75
2023/12/01 19:23:10;;;;;;;4.68;2.50;;;;;;;18.02;100.00;101785.63;10590064;27;20124;-75
2023/12/01 19:28:33;;;;;;;8.48;2.50;;;;;;;17.99;100.00;101777.59;10582471;27;20047;-75
2023/12/01 19:33:55;;;;;;;8.88;3.80;;;;;;;18.09;100.00;101791.88;10585622;27;20039;-76
2023/12/01 19:39:19;;;;;;;6.45;2.65;;;;;;;18.18;100.00;101782.06;10605638;27;20138;-75
2023/12/01 19:44:42;;;;;;;9.20;2.78;;;;;;;18.04;100.00;101785.63;10587543;27;20075;-76
2023/12/01 19:50:05;;;;;;;7.63;2.63;;;;;;;17.94;100.00;101782.03;10589557;27;20046;-76
2023/12/01 19:55:29;;;;;;;5.45;2.60;;;;;;;17.91;100.00;101777.59;10583306;27;20495;-75
2023/12/01 20:00:52;;;;;;;6.97;2.70;;;;;;;17.81;100.00;101778.44;10599081;27;20105;-75
2023/12/01 20:06:15;;;;;;;7.25;2.92;;;;;;;17.73;100.00;101769.53;10575158;27;20139;-75
2023/12/01 20:11:38;;;;;;;8.10;2.55;;;;;;;17.70;100.00;101757.97;10598008;27;20104;-82
2023/12/01 20:17:01;;;;;;;9.80;2.50;;;;;;;17.68;100.00;101747.25;10605835;27;20046;-74
2023/12/01 20:22:23;;;;;;;7.90;3.65;;;;;;;17.79;100.00;101747.28;10595090;27;20095;-74
2023/12/01 20:27:47;;;;;;;5.00;2.70;;;;;;;17.75;100.00;101740.16;10555002;27;20124;-74
2023/12/01 20:33:10;;;;;;;5.00;2.17;;;;;;;17.71;100.00;101743.72;10591133;27;20046;-75
2023/12/01 20:38:33;;;;;;;8.02;2.58;;;;;;;17.65;100.00;101760.63;10578574;27;20112;-74
2023/12/01 20:43:57;;;;;;;8.90;2.78;;;;;;;17.66;100.00;101774.84;10597400;27;20058;-74
2023/12/01 20:49:19;;;;;;;6.82;2.95;;;;;;;17.72;100.00;101769.53;10587954;27;20511;-75
2023/12/01 20:54:42;;;;;;;5.53;2.78;;;;;;;17.69;100.00;101766.84;10581217;27;20191;-75
2023/12/01 21:00:07;;;;;;;9.90;2.63;;;;;;;17.64;100.00;101760.63;10581583;27;20654;-75
2023/12/01 21:05:29;;;;;;;6.35;2.95;;;;;;;17.66;100.00;101764.16;10602284;27;20107;-74
2023/12/01 21:10:52;;;;;;;5.90;3.00;;;;;;;17.63;100.00;101762.41;10603468;27;20054;-75
2023/12/01 21:16:16;;;;;;;5.97;2.85;;;;;;;17.63;100.00;101761.50;10567737;28;20427;-75
2023/12/01 21:21:39;;;;;;;4.38;2.40;;;;;;;17.73;100.00;101766.84;10533610;28;20238;-75
2023/12/01 21:27:01;;;;;;;9.10;2.50;;;;;;;17.69;100.00;101774.88;10572522;27;20501;-74
2023/12/01 21:32:25;;;;;;;7.40;3.05;;;;;;;17.69;100.00;101775.75;10589100;27;20047;-75
2023/12/01 21:37:47;;;;;;;13.35;4.57;;;;;;;17.70;100.00;101763.31;10560419;28;20047;-75
2023/12/01 21:43:10;;;;;;;5.20;2.78;;;;;;;17.63;100.00;101772.19;10592176;27;20091;-75
2023/12/01 21:48:34;;;;;;;12.07;4.63;;;;;;;17.63;100.00;101766.84;10559161;28;20097;-74
2023/12/01 21:53:57;;;;;;;12.10;5.32;;;;;;;17.70;100.00;101768.63;10573466;28;20138;-74
2023/12/01 21:59:19;;;;;;;7.55;4.13;;;;;;;17.63;100.00;101764.16;10559097;28;20052;-74
2023/12/01 22:04:43;;;;;;;21.40;10.00;;;;;;;17.58;100.00;101747.22;10545073;28;20083;-74
2023/12/01 22:10:07;;;;;;;6.28;1.92;;;;;;;17.62;100.00;101746.34;10558667;28;20104;-74
2023/12/01 22:15:29;;;;;;;4.10;2.47;;;;;;;17.74;100.00;101744.59;10572114;28;20124;-74
2023/12/01 22:20:53;;;;;;;10.15;2.53;;;;;;;17.79;100.00;101742.81;10556293;28;20100;-74
2023/12/01 22:26:15;;;;;;;6.50;1.95;;;;;;;17.94;100.00;101741.97;10571657;28;20075;-74
2023/12/01 22:31:37;;;;;;;13.13;4.75;;;;;;;18.07;100.00;101741.09;10572930;28;20046;-75
2023/12/01 22:37:02;;;;;;;8.82;2.20;;;;;;;18.24;100.00;101739.31;10570614;28;20048;-75
2023/12/01 22:42:24;;;;;;;4.80;2.30;;;;;;;18.02;100.00;101721.50;10572256;28;20052;-75
2023/12/01 22:47:46;;;;;;;6.18;2.40;;;;;;;17.89;100.00;101728.59;10571131;28;20048;-74
2023/12/01 22:53:10;;;;;;;4.85;2.30;;;;;;;18.06;100.00;101723.25;10544275;28;20366;-75
2023/12/01 22:58:33;;;;;;;4.63;2.20;;;;;;;18.12;100.00;101719.69;10565159;28;20043;-75
2023/12/01 23:03:55;;;;;;;5.32;1.90;;;;;;;18.12;100.00;101714.34;10565674;28;20050;-74
2023/12/01 23:09:20;;;;;;;4.05;2.00;;;;;;;18.26;100.00;101707.22;10578698;28;20044;-75
2023/12/01 23:14:43;;;;;;;6.85;2.33;;;;;;;18.25;100.00;101700.97;10579991;28;20056;-74
2023/12/01 23:20:06;;;;;;;9.82;2.15;;;;;;;18.19;100.00;101710.78;10560809;28;20043;-74
2023/12/01 23:25:30;;;;;;;4.85;1.95;;;;;;;18.19;100.00;101706.34;10565177;28;20071;-74
2023/12/01 23:30:52;;;;;;;5.70;3.15;;;;;;;18.20;100.00;101718.81;10579238;28;20485;-75
2023/12/01 23:36:15;;;;;;;8.23;2.22;;;;;;;18.23;100.00;101718.81;10574265;28;20032;-74
2023/12/01 23:41:39;;;;;;;2.88;1.85;;;;;;;18.09;100.00;101717.94;10578875;28;20043;-74
2023/12/01 23:47:02;;;;;;;8.20;2.47;;;;;;;18.09;100.00;101712.59;10603199;27;20039;-75
2023/12/01 23:52:24;;;;;;;7.30;2.20;;;;;;;18.13;100.00;101713.47;10584460;27;20147;-74
2023/12/01 23:57:48;;;;;;;6.22;1.90;;;;;;;18.18;100.00;101701.88;10592961;27;20078;-74
